Time;durP1;ratioP1;P1;durP2;ratioP2;P2;SDS_P1;SDS_P2;PMS_P1;PMS_P2;Temp;Humidity;BMP_temperature;BMP_pressure;BME280_temperature;BME280_humidity;BME280_pressure;Samples;Min_cycle;Max_cycle;Signal;HPM_P1;HPM_P2
2023/10/08 00:00:45;;;;;;;5.10;2.13;;;13.80;99.90;;;;;;6239006;23;20020;-68
2023/10/08 00:03:33;;;;;;;4.18;2.08;;;13.90;99.90;;;;;;6238559;23;20016;-67
2023/10/08 00:06:21;;;;;;;5.85;1.83;;;13.90;99.90;;;;;;6239377;23;20008;-66
2023/10/08 00:09:08;;;;;;;3.80;2.17;;;13.90;99.90;;;;;;6241842;23;20004;-67
2023/10/08 00:11:55;;;;;;;5.43;1.90;;;13.90;99.90;;;;;;6240741;23;20015;-67
2023/10/08 00:14:44;;;;;;;3.42;1.75;;;13.90;99.90;;;;;;6241062;23;20031;-67
2023/10/08 00:17:31;;;;;;;5.45;1.77;;;13.90;99.90;;;;;;6238038;23;20016;-67
2023/10/08 00:20:25;;;;;;;5.93;2.25;;;13.90;99.90;;;;;;6238048;23;20020;-67
2023/10/08 00:23:11;;;;;;;5.75;2.10;;;13.80;99.90;;;;;;6238180;23;20334;-67
2023/10/08 00:25:58;;;;;;;9.73;3.00;;;13.80;99.90;;;;;;6238067;23;20342;-67
2023/10/08 00:28:47;;;;;;;5.60;2.15;;;13.80;99.90;;;;;;6240513;23;20008;-66
2023/10/08 00:31:40;;;;;;;4.10;2.10;;;13.70;99.90;;;;;;6240427;23;20099;-66
2023/10/08 00:34:27;;;;;;;5.57;1.90;;;13.70;99.90;;;;;;6238205;23;20365;-66
2023/10/08 00:37:16;;;;;;;4.78;2.00;;;13.70;99.90;;;;;;6241247;23;20384;-67
2023/10/08 00:40:11;;;;;;;6.63;2.10;;;13.70;99.90;;;;;;6238778;23;20527;-67
2023/10/08 00:42:57;;;;;;;7.53;3.30;;;13.70;99.90;;;;;;6239648;23;20457;-67
2023/10/08 00:45:43;;;;;;;4.70;2.30;;;13.60;99.90;;;;;;6237624;23;20023;-68
2023/10/08 00:48:35;;;;;;;5.15;2.53;;;13.60;99.90;;;;;;6240855;23;20142;-68
2023/10/08 00:54:10;;;;;;;6.18;2.35;;;13.60;99.90;;;;;;6239273;23;20008;-68
2023/10/08 00:56:57;;;;;;;5.80;2.50;;;13.60;99.90;;;;;;6237892;22;20020;-68
2023/10/08 00:59:49;;;;;;;4.07;2.13;;;13.60;99.90;;;;;;6238794;23;20030;-69
2023/10/08 01:02:46;;;;;;;5.90;2.15;;;13.60;99.90;;;;;;6239520;23;20023;-68
2023/10/08 01:05:47;;;;;;;3.30;1.73;;;13.60;99.90;;;;;;6241803;23;20039;-68
2023/10/08 01:08:36;;;;;;;5.93;2.38;;;13.60;99.90;;;;;;6236813;23;20035;-69
2023/10/08 01:12:08;;;;;;;6.30;3.20;;;13.60;99.90;;;;;;6239060;23;20040;-68
2023/10/08 01:14:32;;;;;;;5.90;2.15;;;13.60;99.90;;;;;;6239762;23;20039;-68
2023/10/08 01:17:22;;;;;;;5.28;2.13;;;13.50;99.90;;;;;;6239870;23;20004;-68
2023/10/08 01:20:20;;;;;;;7.45;2.45;;;13.50;99.90;;;;;;6240095;23;20016;-69
2023/10/08 01:23:13;;;;;;;8.50;2.42;;;13.50;99.90;;;;;;6240405;23;20338;-68
2023/10/08 01:26:10;;;;;;;12.60;2.65;;;13.50;99.90;;;;;;6237998;23;20012;-68
2023/10/08 01:28:56;;;;;;;4.15;2.42;;;13.50;99.90;;;;;;6237957;23;20012;-67
2023/10/08 01:35:26;;;;;;;6.60;2.38;;;13.60;99.90;;;;;;6238477;23;20027;-68
2023/10/08 01:38:16;;;;;;;8.55;2.78;;;13.60;99.90;;;;;;6239002;23;20008;-67
2023/10/08 01:41:18;;;;;;;6.32;2.67;;;13.60;99.90;;;;;;6238019;23;20026;-69
2023/10/08 01:44:07;;;;;;;6.40;2.22;;;13.60;99.90;;;;;;6239439;23;20005;-67
2023/10/08 01:46:57;;;;;;;5.28;2.42;;;13.60;99.90;;;;;;6239853;23;20079;-68
2023/10/08 01:49:45;;;;;;;2.97;1.80;;;13.60;99.90;;;;;;6218389;23;20431;-68
2023/10/08 01:52:31;;;;;;;8.32;2.78;;;13.70;99.90;;;;;;6239720;23;20036;-68
2023/10/08 01:55:18;;;;;;;6.30;2.58;;;13.60;99.90;;;;;;6239995;22;20031;-68
2023/10/08 01:58:04;;;;;;;5.68;2.60;;;13.60;99.90;;;;;;6236855;23;20027;-68
2023/10/08 02:00:52;;;;;;;7.88;2.05;;;13.60;99.90;;;;;;6239873;23;20016;-69
2023/10/08 02:03:37;;;;;;;4.05;1.90;;;13.60;99.90;;;;;;6237119;23;20016;-69
2023/10/08 02:06:23;;;;;;;6.55;2.15;;;13.60;99.90;;;;;;6237715;23;20012;-68
2023/10/08 02:09:09;;;;;;;5.25;1.80;;;13.60;99.90;;;;;;6238899;23;20008;-68
2023/10/08 02:11:56;;;;;;;5.75;2.05;;;13.70;99.90;;;;;;6238352;23;20016;-68
2023/10/08 02:14:42;;;;;;;5.05;2.15;;;13.60;99.90;;;;;;6237162;23;20012;-68
2023/10/08 02:17:28;;;;;;;6.85;2.13;;;13.60;99.90;;;;;;6238569;23;20008;-68
2023/10/08 02:20:16;;;;;;;6.55;2.60;;;13.70;99.90;;;;;;6238207;23;20074;-68
2023/10/08 02:23:05;;;;;;;7.13;2.35;;;13.60;99.90;;;;;;6242074;23;20362;-68
2023/10/08 02:25:50;;;;;;;8.27;3.05;;;13.60;99.90;;;;;;6242761;23;20008;-68
2023/10/08 02:28:38;;;;;;;5.47;2.47;;;13.50;99.90;;;;;;6241112;23;20023;-67
2023/10/08 02:31:24;;;;;;;7.50;2.35;;;13.60;99.90;;;;;;6240671;23;20008;-67
2023/10/08 02:34:12;;;;;;;5.10;2.85;;;13.50;99.90;;;;;;6241124;23;20014;-68
2023/10/08 02:36:59;;;;;;;9.52;2.92;;;13.50;99.90;;;;;;6240236;23;20012;-69
2023/10/08 02:39:45;;;;;;;6.95;2.67;;;13.40;99.90;;;;;;6239904;23;20012;-68
2023/10/08 02:42:31;;;;;;;8.43;2.65;;;13.40;99.90;;;;;;6240441;23;20350;-68
2023/10/08 02:45:18;;;;;;;7.72;3.05;;;13.40;99.90;;;;;;6240809;23;20012;-68
2023/10/08 02:48:11;;;;;;;12.90;2.90;;;13.30;99.90;;;;;;6240344;23;20331;-68
2023/10/08 02:51:06;;;;;;;7.72;2.67;;;13.30;99.90;;;;;;6239830;23;20019;-68
2023/10/08 02:53:52;;;;;;;5.15;2.75;;;13.30;99.90;;;;;;6241464;23;20450;-67
2023/10/08 02:56:38;;;;;;;6.88;3.22;;;13.30;99.90;;;;;;6239998;22;20004;-69
2023/10/08 02:59:38;;;;;;;5.40;2.83;;;13.20;99.90;;;;;;6241418;23;20158;-69
2023/10/08 03:02:24;;;;;;;8.13;3.15;;;13.20;99.90;;;;;;6239029;23;20024;-69
2023/10/08 03:05:13;;;;;;;6.57;3.22;;;13.20;99.90;;;;;;6240256;23;20008;-68
2023/10/08 03:07:59;;;;;;;7.82;2.90;;;13.20;99.90;;;;;;6239890;23;20078;-69
2023/10/08 03:10:45;;;;;;;8.52;3.50;;;13.20;99.90;;;;;;6218618;23;20008;-69
2023/10/08 03:13:31;;;;;;;8.10;3.05;;;13.20;99.90;;;;;;6238631;23;20488;-69
2023/10/08 03:16:21;;;;;;;9.55;3.40;;;13.20;99.90;;;;;;6239681;23;20015;-71
2023/10/08 03:19:08;;;;;;;6.90;3.10;;;13.20;99.90;;;;;;6239724;23;20004;-69
2023/10/08 03:21:57;;;;;;;4.70;2.53;;;13.20;99.90;;;;;;6239228;23;20077;-69
2023/10/08 03:24:43;;;;;;;7.13;3.72;;;13.20;99.90;;;;;;6240631;23;20015;-69
2023/10/08 03:27:29;;;;;;;6.38;3.20;;;13.20;99.90;;;;;;6239809;23;20103;-69
2023/10/08 03:30:15;;;;;;;11.35;3.63;;;13.10;99.90;;;;;;6239481;23;20090;-69
2023/10/08 03:33:04;;;;;;;8.50;3.65;;;13.20;99.90;;;;;;6239849;23;20012;-68
2023/10/08 03:35:54;;;;;;;9.02;3.38;;;13.20;99.90;;;;;;6239527;23;20009;-68
2023/10/08 03:38:52;;;;;;;7.13;3.25;;;13.20;99.90;;;;;;6239792;23;20024;-68
2023/10/08 03:41:39;;;;;;;7.63;2.95;;;13.20;99.90;;;;;;6241126;23;20016;-69
2023/10/08 03:44:29;;;;;;;6.30;3.05;;;13.20;99.90;;;;;;6241621;23;20439;-69
2023/10/08 03:47:18;;;;;;;7.15;3.25;;;13.20;99.90;;;;;;6240859;23;20019;-68
2023/10/08 03:50:09;;;;;;;6.82;2.97;;;13.20;99.90;;;;;;6238009;23;20016;-68
2023/10/08 03:52:55;;;;;;;6.60;2.75;;;13.20;99.90;;;;;;6238696;23;20012;-68
2023/10/08 03:55:41;;;;;;;5.78;2.78;;;13.20;99.90;;;;;;6239441;22;20039;-69
2023/10/08 03:58:29;;;;;;;10.82;3.10;;;13.30;99.90;;;;;;6238168;23;20541;-69
2023/10/08 04:01:19;;;;;;;8.55;3.10;;;13.20;99.90;;;;;;6240428;23;20020;-68
2023/10/08 04:04:05;;;;;;;6.10;2.60;;;13.20;99.90;;;;;;6239385;23;20393;-68
2023/10/08 04:06:54;;;;;;;9.25;2.95;;;13.20;99.90;;;;;;6238991;23;20046;-68
2023/10/08 04:09:42;;;;;;;5.53;2.65;;;13.20;99.90;;;;;;6241637;23;20377;-69
2023/10/08 04:12:28;;;;;;;7.60;2.65;;;13.20;99.90;;;;;;6238651;23;20087;-69
2023/10/08 04:15:16;;;;;;;7.53;3.30;;;13.20;99.90;;;;;;6238906;23;20465;-69
2023/10/08 04:18:02;;;;;;;8.75;3.97;;;13.20;99.90;;;;;;6239511;23;20051;-69
2023/10/08 04:21:04;;;;;;;9.35;2.75;;;13.20;99.90;;;;;;6240339;23;20020;-69
2023/10/08 04:23:51;;;;;;;7.65;3.13;;;13.20;99.90;;;;;;6239071;23;20066;-69
2023/10/08 04:26:40;;;;;;;8.50;2.90;;;13.10;99.90;;;;;;6237809;23;20031;-69
2023/10/08 04:29:31;;;;;;;7.53;2.85;;;13.10;99.90;;;;;;6240892;23;20324;-69
2023/10/08 04:32:24;;;;;;;7.63;2.72;;;13.10;99.90;;;;;;6238030;23;20016;-69
2023/10/08 04:35:14;;;;;;;7.68;3.20;;;13.00;99.90;;;;;;6240825;23;20339;-70
2023/10/08 04:38:00;;;;;;;6.32;2.80;;;13.00;99.90;;;;;;6240915;23;20016;-70
2023/10/08 04:40:52;;;;;;;5.93;2.67;;;13.00;99.90;;;;;;6238214;23;20353;-69
2023/10/08 04:43:38;;;;;;;4.82;2.70;;;13.00;99.90;;;;;;6238983;23;20070;-70
2023/10/08 04:49:28;;;;;;;9.02;3.10;;;13.00;99.90;;;;;;6240051;23;20758;-70
2023/10/08 04:52:14;;;;;;;6.72;3.00;;;13.00;99.90;;;;;;6240332;23;20061;-70
2023/10/08 04:55:12;;;;;;;7.57;3.28;;;13.10;99.90;;;;;;6240269;23;20039;-69
2023/10/08 04:57:59;;;;;;;10.20;3.10;;;13.10;99.90;;;;;;6237654;23;20024;-68
2023/10/08 05:00:53;;;;;;;9.32;3.60;;;13.10;99.90;;;;;;6237956;23;20095;-68
2023/10/08 05:03:54;;;;;;;15.52;4.53;;;13.00;99.90;;;;;;6239876;23;20342;-69
2023/10/08 05:06:50;;;;;;;7.18;3.30;;;13.00;99.90;;;;;;6237368;23;20023;-69
2023/10/08 05:09:47;;;;;;;5.40;2.53;;;13.00;99.90;;;;;;6238795;23;20012;-68
2023/10/08 05:12:50;;;;;;;5.72;2.85;;;12.90;99.90;;;;;;6239200;23;20036;-68
2023/10/08 05:15:41;;;;;;;8.82;3.20;;;12.80;99.90;;;;;;6238551;23;20016;-69
2023/10/08 05:19:06;;;;;;;10.82;2.85;;;12.80;99.90;;;;;;6239348;23;20347;-70
2023/10/08 05:21:50;;;;;;;8.90;3.50;;;12.80;99.90;;;;;;6238213;23;20351;-70
2023/10/08 05:24:40;;;;;;;7.05;3.50;;;12.80;99.90;;;;;;6238697;23;20469;-69
2023/10/08 05:27:37;;;;;;;5.97;3.42;;;12.70;99.90;;;;;;6237510;23;20008;-70
2023/10/08 05:30:37;;;;;;;6.50;3.00;;;12.70;99.90;;;;;;6238352;23;20465;-70
2023/10/08 05:33:38;;;;;;;7.63;2.95;;;12.70;99.90;;;;;;6237875;23;20041;-70
2023/10/08 05:39:40;;;;;;;7.05;3.08;;;12.70;99.90;;;;;;6186031;23;20012;-70
2023/10/08 05:45:29;;;;;;;5.90;2.50;;;12.70;99.90;;;;;;6242104;23;20309;-70
2023/10/08 05:48:15;;;;;;;5.97;2.63;;;12.70;99.90;;;;;;6239438;23;20008;-71
2023/10/08 05:51:23;;;;;;;6.07;3.22;;;12.70;99.90;;;;;;6239507;23;20012;-70
2023/10/08 05:54:24;;;;;;;8.23;2.85;;;12.70;99.90;;;;;;6239493;23;20012;-70
2023/10/08 06:05:43;;;;;;;5.32;2.63;;;12.70;99.90;;;;;;6241907;23;20019;-70
2023/10/08 06:08:48;;;;;;;11.45;3.65;;;12.70;99.90;;;;;;6241098;23;20047;-69
2023/10/08 06:17:56;;;;;;;7.32;3.33;;;12.80;99.90;;;;;;6240855;23;20004;-71
2023/10/08 06:20:44;;;;;;;8.88;3.30;;;12.70;99.90;;;;;;6240203;23;20059;-68
2023/10/08 06:23:35;;;;;;;7.22;2.80;;;12.80;99.90;;;;;;6239015;23;20019;-70
2023/10/08 06:26:24;;;;;;;7.88;3.55;;;12.80;99.90;;;;;;6238743;23;20015;-68
2023/10/08 06:29:26;;;;;;;6.60;2.75;;;12.80;99.90;;;;;;6239253;23;20059;-71
2023/10/08 06:32:12;;;;;;;6.75;2.15;;;12.90;99.90;;;;;;6239513;23;20127;-68
2023/10/08 06:34:58;;;;;;;6.70;2.10;;;12.90;99.90;;;;;;6237587;23;20016;-70
2023/10/08 06:37:45;;;;;;;4.95;2.08;;;12.90;99.90;;;;;;6238490;23;20050;-69
2023/10/08 06:40:40;;;;;;;7.43;2.00;;;12.90;99.90;;;;;;6240704;23;20023;-69
2023/10/08 06:43:27;;;;;;;8.05;2.97;;;13.00;99.90;;;;;;6241155;23;20012;-69
2023/10/08 06:46:14;;;;;;;6.38;2.83;;;13.00;99.90;;;;;;6239954;23;20014;-70
2023/10/08 06:49:02;;;;;;;7.30;2.13;;;13.00;99.90;;;;;;6238702;23;20060;-69
2023/10/08 06:51:50;;;;;;;4.32;2.15;;;13.00;99.90;;;;;;6238329;23;20012;-70
2023/10/08 06:54:36;;;;;;;5.50;2.05;;;13.00;99.90;;;;;;6240556;23;20342;-69
2023/10/08 06:57:26;;;;;;;6.30;2.20;;;12.90;99.90;;;;;;6239956;22;20059;-65
2023/10/08 07:00:33;;;;;;;5.35;2.25;;;12.90;99.90;;;;;;6240352;23;20016;-64
2023/10/08 07:03:20;;;;;;;5.55;2.45;;;12.90;99.90;;;;;;6237111;23;20096;-64
2023/10/08 07:12:14;;;;;;;3.90;1.75;;;12.90;99.90;;;;;;6239586;23;20090;-64
2023/10/08 07:15:01;;;;;;;4.07;1.50;;;12.90;99.90;;;;;;6238331;23;20453;-64
2023/10/08 07:17:51;;;;;;;4.82;1.67;;;12.90;99.90;;;;;;6239304;23;20023;-64
2023/10/08 07:20:39;;;;;;;4.38;1.45;;;12.90;99.90;;;;;;6240545;23;20028;-66
2023/10/08 07:23:27;;;;;;;2.60;1.60;;;12.80;99.90;;;;;;6238931;23;20087;-66
2023/10/08 07:26:14;;;;;;;2.85;1.60;;;12.90;99.90;;;;;;6241390;23;20023;-66
2023/10/08 07:29:00;;;;;;;2.88;1.70;;;12.80;99.90;;;;;;6239419;23;20008;-66
2023/10/08 07:31:48;;;;;;;6.50;2.20;;;12.80;99.90;;;;;;6237747;23;20080;-66
2023/10/08 07:34:34;;;;;;;5.53;2.03;;;12.80;99.90;;;;;;6241299;23;20447;-66
2023/10/08 07:37:20;;;;;;;4.40;1.67;;;12.80;99.90;;;;;;6239725;23;20008;-66
2023/10/08 07:40:09;;;;;;;4.93;1.60;;;12.80;99.90;;;;;;6240198;23;20055;-66
2023/10/08 07:42:55;;;;;;;3.15;1.70;;;12.80;99.90;;;;;;6241992;23;20008;-66
2023/10/08 07:45:45;;;;;;;5.18;2.25;;;12.80;99.90;;;;;;6238102;23;20004;-66
2023/10/08 07:48:31;;;;;;;3.13;1.52;;;12.80;99.90;;;;;;6240745;23;20030;-66
2023/10/08 07:51:21;;;;;;;3.72;2.22;;;12.80;99.90;;;;;;6237662;23;20020;-67
2023/10/08 07:54:16;;;;;;;4.65;1.73;;;12.80;99.90;;;;;;6239013;23;20469;-67
2023/10/08 07:57:09;;;;;;;3.40;1.67;;;12.80;99.90;;;;;;6239585;22;20012;-67
2023/10/08 07:59:54;;;;;;;2.17;1.38;;;12.80;99.90;;;;;;6238853;23;20019;-67
2023/10/08 08:02:41;;;;;;;2.92;1.45;;;12.90;99.90;;;;;;6239351;23;20012;-67
2023/10/08 08:05:27;;;;;;;5.38;1.77;;;12.90;99.90;;;;;;6240107;23;20008;-68
2023/10/08 08:08:17;;;;;;;3.55;1.50;;;12.80;99.90;;;;;;6239551;23;20011;-67
2023/10/08 08:11:06;;;;;;;2.15;1.42;;;12.90;99.90;;;;;;6240446;23;20062;-69
2023/10/08 08:13:52;;;;;;;4.32;1.38;;;12.90;99.90;;;;;;6240907;23;20018;-67
2023/10/08 08:16:38;;;;;;;4.25;1.85;;;12.90;99.90;;;;;;6239666;23;20091;-68
2023/10/08 08:19:24;;;;;;;3.42;1.20;;;12.90;99.90;;;;;;6239292;23;20019;-68
2023/10/08 08:22:15;;;;;;;4.57;2.00;;;12.90;99.90;;;;;;6238463;23;20027;-67
2023/10/08 08:25:55;;;;;;;3.03;1.50;;;12.90;99.90;;;;;;6239839;23;20082;-67
2023/10/08 08:28:16;;;;;;;3.75;1.42;;;12.90;99.90;;;;;;6236693;23;20091;-67
2023/10/08 08:31:04;;;;;;;;;;;12.90;99.90;;;;;;6241055;23;20043;-68
2023/10/08 08:33:52;;;;;;;2.45;1.30;;;12.90;99.90;;;;;;6238321;23;19907;-68
2023/10/08 08:36:39;;;;;;;3.42;1.67;;;12.90;99.90;;;;;;6236991;23;20012;-68
2023/10/08 08:39:32;;;;;;;2.50;1.30;;;12.90;99.90;;;;;;6239516;23;20043;-67
2023/10/08 08:42:23;;;;;;;1.95;1.05;;;13.00;99.90;;;;;;6239652;23;20058;-68
2023/10/08 08:45:13;;;;;;;2.53;1.40;;;13.00;99.90;;;;;;6238130;23;20011;-67
2023/10/08 08:48:00;;;;;;;3.53;1.52;;;13.00;99.90;;;;;;6240726;23;20044;-68
2023/10/08 08:50:47;;;;;;;3.20;1.15;;;13.10;99.90;;;;;;6237967;23;20008;-68
2023/10/08 08:53:34;;;;;;;3.50;1.20;;;13.10;99.90;;;;;;6240073;23;20016;-68
2023/10/08 08:56:21;;;;;;;2.45;1.17;;;13.10;99.90;;;;;;6239570;22;20095;-68
2023/10/08 08:59:13;;;;;;;3.42;1.73;;;13.10;99.90;;;;;;6237602;23;20020;-68
2023/10/08 09:02:00;;;;;;;2.33;1.17;;;13.20;99.90;;;;;;6238773;23;20015;-68
2023/10/08 09:04:48;;;;;;;3.78;1.35;;;13.20;99.90;;;;;;6238097;23;20044;-68
2023/10/08 09:07:35;;;;;;;3.25;1.40;;;13.30;99.90;;;;;;6238940;23;20434;-68
2023/10/08 09:10:28;;;;;;;3.03;1.00;;;13.30;99.90;;;;;;6238116;23;20101;-68
2023/10/08 09:13:14;;;;;;;1.67;1.13;;;13.40;99.90;;;;;;6237769;23;20090;-68
2023/10/08 09:16:16;;;;;;;3.47;1.20;;;13.40;99.90;;;;;;6238937;23;20090;-68
2023/10/08 09:19:04;;;;;;;3.35;1.10;;;13.60;99.90;;;;;;6238520;23;20008;-69
2023/10/08 09:22:01;;;;;;;3.35;1.70;;;13.50;99.90;;;;;;6238169;23;20016;-69
2023/10/08 09:24:47;;;;;;;1.60;0.95;;;13.60;99.90;;;;;;6237146;23;20087;-69
2023/10/08 09:27:33;;;;;;;1.98;1.30;;;13.60;99.90;;;;;;6237749;23;20008;-68
2023/10/08 09:30:20;;;;;;;3.70;1.58;;;13.70;99.90;;;;;;6239023;23;20019;-69
2023/10/08 09:33:10;;;;;;;2.20;1.20;;;13.70;99.60;;;;;;6239178;23;20019;-70
2023/10/08 09:36:02;;;;;;;2.00;1.00;;;13.70;99.10;;;;;;6240036;23;20012;-69
2023/10/08 09:38:49;;;;;;;1.70;1.10;;;13.70;98.90;;;;;;6240539;23;20008;-69
2023/10/08 09:41:38;;;;;;;1.05;0.73;;;13.70;98.60;;;;;;6240134;23;20365;-69
2023/10/08 09:44:25;;;;;;;2.70;1.27;;;13.70;98.60;;;;;;6236470;23;20514;-68
2023/10/08 09:47:17;;;;;;;2.85;1.23;;;13.70;98.60;;;;;;6240870;23;20347;-68
2023/10/08 09:50:07;;;;;;;4.28;1.38;;;13.70;98.30;;;;;;6240795;23;20015;-67
2023/10/08 09:53:07;;;;;;;2.20;1.30;;;13.80;98.20;;;;;;6239033;23;20011;-67
2023/10/08 09:55:55;;;;;;;2.10;1.10;;;13.90;98.00;;;;;;6241014;22;20020;-69
2023/10/08 09:58:43;;;;;;;1.30;1.00;;;13.80;97.80;;;;;;6241023;23;20031;-71
2023/10/08 10:01:32;;;;;;;2.00;1.20;;;13.90;97.70;;;;;;6240022;23;20020;-70
2023/10/08 10:04:24;;;;;;;2.47;1.13;;;13.90;97.40;;;;;;6240286;23;20460;-72
2023/10/08 10:07:16;;;;;;;3.20;1.35;;;13.90;97.00;;;;;;6242011;23;20008;-72
2023/10/08 10:10:26;;;;;;;1.23;0.70;;;13.90;96.80;;;;;;6240616;23;20004;-70
2023/10/08 10:13:12;;;;;;;9.90;5.20;;;14.00;96.00;;;;;;6240318;23;20011;-69
2023/10/08 10:15:58;;;;;;;7.35;3.53;;;14.00;96.00;;;;;;6239732;23;20008;-67
2023/10/08 10:18:46;;;;;;;16.63;9.05;;;14.00;95.80;;;;;;6241088;23;20016;-70
2023/10/08 10:21:33;;;;;;;5.45;3.00;;;14.10;96.00;;;;;;6239978;23;20027;-67
2023/10/08 10:24:41;;;;;;;8.73;5.30;;;14.20;94.50;;;;;;6241303;23;20361;-68
2023/10/08 10:27:27;;;;;;;3.53;1.75;;;14.20;93.80;;;;;;6241013;23;20643;-69
2023/10/08 10:30:18;;;;;;;2.55;1.50;;;14.20;93.90;;;;;;6239765;23;20008;-70
2023/10/08 10:33:05;;;;;;;3.50;1.30;;;14.20;93.40;;;;;;6239215;23;20012;-69
2023/10/08 10:35:52;;;;;;;4.03;1.52;;;14.20;92.50;;;;;;6239567;23;20235;-74
2023/10/08 10:38:42;;;;;;;1.67;1.05;;;14.30;92.30;;;;;;6239844;23;20087;-74
2023/10/08 10:41:28;;;;;;;4.05;1.05;;;14.30;91.80;;;;;;6240355;23;20024;-74
2023/10/08 10:44:14;;;;;;;1.20;0.88;;;14.40;91.60;;;;;;6239594;23;20039;-74
2023/10/08 10:47:25;;;;;;;1.95;0.80;;;14.40;91.60;;;;;;6240485;23;20066;-73
2023/10/08 10:52:53;;;;;;;1.48;0.98;;;14.50;90.90;;;;;;6241505;23;20358;-73
2023/10/08 10:55:47;;;;;;;1.80;1.10;;;14.50;90.80;;;;;;6239124;22;20014;-73
2023/10/08 10:58:39;;;;;;;2.55;1.13;;;14.50;90.30;;;;;;6240144;23;20027;-73
2023/10/08 11:01:44;;;;;;;12.85;7.32;;;14.60;90.40;;;;;;6218433;23;20020;-73
2023/10/08 11:04:49;;;;;;;5.28;1.83;;;14.60;90.60;;;;;;6178142;23;20095;-72
2023/10/08 11:07:36;;;;;;;2.45;1.48;;;14.70;90.30;;;;;;6176041;23;20017;-75
2023/10/08 11:10:24;;;;;;;3.85;1.27;;;14.70;89.80;;;;;;6177201;23;20032;-73
2023/10/08 11:13:16;;;;;;;2.60;1.38;;;14.70;89.10;;;;;;6176089;23;20013;-73
2023/10/08 11:16:04;;;;;;;2.15;0.90;;;14.80;88.90;;;;;;6176883;23;20084;-73
2023/10/08 11:18:51;;;;;;;1.15;1.00;;;14.90;87.40;;;;;;6176482;23;20013;-73
2023/10/08 11:22:06;;;;;;;1.25;0.80;;;14.80;87.80;;;;;;6210912;23;20056;-72
2023/10/08 11:24:53;;;;;;;3.30;0.88;;;14.90;87.40;;;;;;6202714;23;20004;-73
2023/10/08 11:27:39;;;;;;;1.52;1.08;;;14.90;87.30;;;;;;6207433;23;20016;-72
2023/10/08 11:30:30;;;;;;;1.35;0.73;;;14.90;87.20;;;;;;6206468;23;20017;-74
2023/10/08 11:33:16;;;;;;;2.20;1.10;;;15.00;86.40;;;;;;6205436;23;20027;-73
2023/10/08 11:36:06;;;;;;;1.13;0.90;;;15.10;86.00;;;;;;6233620;23;20087;-73
2023/10/08 11:38:53;;;;;;;1.45;0.70;;;15.20;85.10;;;;;;6240393;23;20393;-73
2023/10/08 11:41:49;;;;;;;1.88;1.10;;;15.20;84.40;;;;;;6240495;23;20111;-73
2023/10/08 11:44:35;;;;;;;1.65;1.05;;;15.20;83.90;;;;;;6239339;23;20016;-74
2023/10/08 11:47:22;;;;;;;1.52;1.10;;;15.30;85.00;;;;;;6240320;23;20247;-73
2023/10/08 11:50:16;;;;;;;1.73;1.02;;;15.40;85.10;;;;;;6237518;23;20012;-73
2023/10/08 11:53:03;;;;;;;2.95;1.00;;;15.50;84.30;;;;;;6239195;23;20442;-73
2023/10/08 11:55:49;;;;;;;2.33;1.52;;;15.50;83.90;;;;;;6237601;22;20008;-73
2023/10/08 11:58:37;;;;;;;2.08;1.55;;;15.60;85.10;;;;;;6238576;23;20024;-71
2023/10/08 12:01:24;;;;;;;1.85;1.10;;;15.70;84.10;;;;;;6241163;23;20023;-69
2023/10/08 12:04:16;;;;;;;3.22;1.50;;;15.70;82.70;;;;;;6240432;23;20256;-74
2023/10/08 12:07:07;;;;;;;2.15;1.10;;;15.80;83.80;;;;;;6239649;23;20018;-72
2023/10/08 12:09:54;;;;;;;1.05;0.80;;;15.90;82.70;;;;;;6238203;23;20023;-73
2023/10/08 12:12:40;;;;;;;1.58;1.10;;;16.00;82.30;;;;;;6237999;23;20011;-72
2023/10/08 12:15:34;;;;;;;3.85;1.00;;;16.10;81.50;;;;;;6239960;23;20020;-74
2023/10/08 12:18:26;;;;;;;2.03;1.10;;;16.20;80.70;;;;;;6239303;23;20538;-71
2023/10/08 12:21:15;;;;;;;1.58;0.80;;;16.30;79.40;;;;;;6238628;23;20020;-72
2023/10/08 12:24:05;;;;;;;1.27;0.93;;;16.30;80.10;;;;;;6238431;23;20083;-71
2023/10/08 12:26:51;;;;;;;3.03;1.10;;;16.30;79.20;;;;;;6237926;23;20015;-71
2023/10/08 12:29:38;;;;;;;1.45;0.98;;;16.40;80.10;;;;;;6239060;23;20004;-71
2023/10/08 12:32:26;;;;;;;2.67;0.70;;;16.40;80.00;;;;;;6239737;23;20004;-70
2023/10/08 12:35:15;;;;;;;3.15;1.10;;;16.50;78.80;;;;;;6217093;23;20000;-71
2023/10/08 12:38:00;;;;;;;1.90;0.85;;;16.50;78.80;;;;;;6236895;23;20019;-71
2023/10/08 12:40:52;;;;;;;2.78;1.30;;;16.50;79.10;;;;;;6238625;23;20527;-71
2023/10/08 12:43:42;;;;;;;1.02;0.70;;;16.50;79.20;;;;;;6239276;23;20066;-71
2023/10/08 12:46:30;;;;;;;1.40;0.73;;;16.50;78.90;;;;;;6238668;23;20119;-70
2023/10/08 12:49:17;;;;;;;1.27;0.90;;;16.50;78.60;;;;;;6237195;23;20019;-71
2023/10/08 12:52:02;;;;;;;2.40;0.82;;;16.40;77.60;;;;;;6239924;23;20063;-71
2023/10/08 12:54:49;;;;;;;1.25;0.77;;;16.40;77.70;;;;;;6237130;23;20450;-71
2023/10/08 12:57:37;;;;;;;1.45;1.00;;;16.50;77.70;;;;;;6238733;23;20502;-71
2023/10/08 13:00:23;;;;;;;1.95;1.15;;;16.50;76.90;;;;;;6240747;23;20095;-71
2023/10/08 13:03:22;;;;;;;2.30;1.00;;;16.60;78.30;;;;;;6238462;23;20009;-70
2023/10/08 13:06:21;;;;;;;2.00;0.88;;;16.70;77.40;;;;;;6237568;23;20385;-71
2023/10/08 13:09:12;;;;;;;2.10;0.90;;;16.70;77.30;;;;;;6238815;23;20005;-71
2023/10/08 13:12:01;;;;;;;2.33;1.00;;;16.80;77.90;;;;;;6239748;23;20012;-72
2023/10/08 13:14:47;;;;;;;2.95;1.20;;;16.90;77.50;;;;;;6238790;23;20385;-71
2023/10/08 13:17:33;;;;;;;1.55;1.05;;;16.90;77.40;;;;;;6239299;23;20012;-71
2023/10/08 13:20:21;;;;;;;1.52;0.82;;;16.90;76.30;;;;;;6239071;23;20016;-71
2023/10/08 13:23:07;;;;;;;2.53;0.88;;;16.90;76.30;;;;;;6239617;23;20274;-71
2023/10/08 13:25:54;;;;;;;1.88;0.95;;;16.90;76.40;;;;;;6237770;23;20020;-72
2023/10/08 13:28:40;;;;;;;1.15;0.90;;;17.00;76.60;;;;;;6236828;23;20012;-71
2023/10/08 13:31:27;;;;;;;1.70;0.85;;;17.10;76.30;;;;;;6237489;23;20047;-71
2023/10/08 13:34:15;;;;;;;3.63;0.90;;;17.10;75.90;;;;;;6238707;23;20012;-71
2023/10/08 13:37:01;;;;;;;1.67;0.90;;;17.20;75.50;;;;;;6237915;23;20019;-71
2023/10/08 13:39:47;;;;;;;3.65;1.30;;;17.20;75.90;;;;;;6237041;23;20019;-71
2023/10/08 13:42:33;;;;;;;3.38;1.75;;;17.30;75.40;;;;;;6238766;23;20020;-71
2023/10/08 13:45:26;;;;;;;2.60;1.38;;;17.20;75.40;;;;;;6237653;23;20008;-72
2023/10/08 13:48:13;;;;;;;2.00;1.00;;;17.10;76.10;;;;;;6238961;23;20010;-71
2023/10/08 13:51:01;;;;;;;3.00;1.30;;;17.10;77.20;;;;;;6238962;23;20043;-72
2023/10/08 13:53:59;;;;;;;2.55;1.20;;;17.10;77.10;;;;;;6238814;23;20373;-71
2023/10/08 13:56:48;;;;;;;3.42;1.50;;;17.20;77.30;;;;;;6237840;22;20090;-72
2023/10/08 13:59:34;;;;;;;1.67;1.15;;;17.10;75.70;;;;;;6217299;23;20009;-72
2023/10/08 14:02:21;;;;;;;2.50;1.23;;;17.00;75.90;;;;;;6238279;23;20024;-73
2023/10/08 14:05:08;;;;;;;2.10;1.00;;;16.90;75.70;;;;;;6237877;23;20015;-72
2023/10/08 14:07:56;;;;;;;2.40;1.35;;;16.80;75.00;;;;;;6235558;23;20020;-73
2023/10/08 14:10:43;;;;;;;2.03;1.20;;;16.80;75.70;;;;;;6237859;23;20008;-73
2023/10/08 14:13:31;;;;;;;1.98;1.15;;;16.70;75.50;;;;;;6237628;23;20014;-72
2023/10/08 14:16:18;;;;;;;2.15;1.10;;;16.80;75.00;;;;;;6241034;23;20008;-72
2023/10/08 14:19:04;;;;;;;1.58;1.00;;;16.80;75.00;;;;;;6240887;23;20420;-72
2023/10/08 14:21:54;;;;;;;4.63;1.55;;;16.90;75.20;;;;;;6239203;23;20106;-73
2023/10/08 14:24:40;;;;;;;1.65;0.80;;;17.00;74.40;;;;;;6240305;23;20008;-72
2023/10/08 14:27:31;;;;;;;1.95;0.90;;;17.10;74.90;;;;;;6240543;23;20094;-73
2023/10/08 14:30:21;;;;;;;2.58;0.93;;;17.10;74.70;;;;;;6218192;23;20622;-73
2023/10/08 14:33:09;;;;;;;1.35;0.85;;;17.10;74.60;;;;;;6240622;23;20353;-73
2023/10/08 14:45:11;;;;;;;1.15;0.90;;;17.20;75.50;;;;;;6239606;23;20337;-72
2023/10/08 14:47:58;;;;;;;2.17;1.20;;;17.20;75.00;;;;;;6241044;23;20008;-72
2023/10/08 14:50:45;;;;;;;1.67;0.90;;;17.20;74.70;;;;;;6239631;23;20597;-72
2023/10/08 14:53:31;;;;;;;1.95;1.35;;;17.20;75.10;;;;;;6239064;23;20395;-72
2023/10/08 14:56:19;;;;;;;2.38;1.30;;;17.20;75.30;;;;;;6238893;22;20052;-72
2023/10/08 14:59:05;;;;;;;3.53;1.33;;;17.20;74.50;;;;;;6241345;23;20027;-72
2023/10/08 15:01:53;;;;;;;2.53;1.10;;;17.10;74.80;;;;;;6240827;23;20082;-72
2023/10/08 15:04:39;;;;;;;2.80;0.82;;;17.10;74.40;;;;;;6241119;23;20004;-72
2023/10/08 15:07:25;;;;;;;2.85;1.70;;;17.00;74.30;;;;;;6239782;23;20353;-72
2023/10/08 15:10:14;;;;;;;2.25;0.98;;;17.10;73.70;;;;;;6240542;23;20004;-72
2023/10/08 15:13:01;;;;;;;1.63;0.98;;;17.10;75.10;;;;;;6240261;23;20000;-72
2023/10/08 15:15:47;;;;;;;3.03;1.63;;;17.10;74.90;;;;;;6236781;23;20012;-72
2023/10/08 15:18:41;;;;;;;1.95;1.30;;;17.10;74.50;;;;;;6242191;23;20432;-71
2023/10/08 15:21:27;;;;;;;2.70;1.70;;;17.10;73.30;;;;;;6241200;23;20059;-71
2023/10/08 15:24:14;;;;;;;3.90;1.63;;;16.90;73.60;;;;;;6238993;23;20008;-71
2023/10/08 15:27:00;;;;;;;2.50;1.70;;;16.90;74.10;;;;;;6239501;23;20079;-72
2023/10/08 15:29:46;;;;;;;3.03;1.20;;;16.90;75.00;;;;;;6240320;23;20023;-72
2023/10/08 15:32:32;;;;;;;4.22;1.88;;;16.80;74.30;;;;;;6240280;23;20016;-72